Zhangqiu, China
Current Conditions -  °F | °C
As of 5:00 AM on Friday 24 Oct 2014 (Local Time) from ZSJN Reporting Station
Haze Haze  
Wind Chill: 54°   Ceiling: Unl
Heat Index: 54°   Visibility: 3mi
Dew Point: 52°   Wind: 2mph
Humidity: 94%   Direction: 170°S
Pressure: 29.88"   Gusts: NA
Location:  36.72°N, 117.5°E
Report Text: ZSJN 232100Z 17001MPS 5000 BR NSC 12/11 Q1012 NOSIG
Loading
Personal Weather Stations






























Interactive Weather Map
Tropical Storm Tracking
New forecast layout! Learn more

10-Day Weather Forecast

Advertisements
Track Severe Weather on mobile